Time;durP1;ratioP1;P1;durP2;ratioP2;P2;SDS_P1;SDS_P2;PMS_P1;PMS_P2;Temp;Humidity;BMP_temperature;BMP_pressure;BME280_temperature;BME280_humidity;BME280_pressure;Samples;Min_cycle;Max_cycle;Signal;HPM_P1;HPM_P2
2023/01/31 00:00:10;;;;;;;34.47;17.70;;;;;;;0.50;97.49;93969.53;5051092;28;20182;-53
2023/01/31 00:02:35;;;;;;;36.60;17.30;;;;;;;0.61;97.16;94003.00;5049454;28;20567;-56
2023/01/31 00:05:01;;;;;;;32.60;16.80;;;;;;;0.55;100.00;93945.03;5050821;28;20197;-57
2023/01/31 00:07:26;;;;;;;33.50;16.40;;;;;;;0.67;97.18;94007.66;5048646;28;20194;-55
2023/01/31 00:09:52;;;;;;;35.53;16.63;;;;;;;0.73;99.28;93966.50;5049820;28;20284;-53
2023/01/31 00:12:17;;;;;;;33.33;16.53;;;;;;;0.87;99.36;93976.50;5049451;28;20181;-54
2023/01/31 00:14:43;;;;;;;37.00;17.20;;;;;;;1.02;99.45;93998.13;5050851;28;20213;-56
2023/01/31 00:17:08;;;;;;;38.50;16.50;;;;;;;1.09;97.33;94019.38;5050635;28;20271;-52
2023/01/31 00:19:34;;;;;;;35.00;16.97;;;;;;;1.16;96.37;94033.16;5051017;28;20610;-56
2023/01/31 00:21:59;;;;;;;30.23;16.03;;;;;;;1.19;96.43;94025.44;5050895;28;20238;-53
2023/01/31 00:24:24;;;;;;;31.27;16.20;;;;;;;1.29;94.38;94049.06;5053963;28;20213;-53
2023/01/31 00:26:55;;;;;;;34.10;17.27;;;;;;;1.41;94.85;94032.53;5054243;28;20239;-54
2023/01/31 00:29:22;;;;;;;37.13;15.90;;;;;;;1.26;93.74;94059.25;5054325;28;20209;-55
2023/01/31 00:32:06;;;;;;;34.80;15.73;;;;;;;1.19;96.20;94002.94;5054316;28;20552;-56
2023/01/31 00:34:37;;;;;;;33.00;16.77;;;;;;;1.20;95.64;94021.25;5053951;28;20221;-52
2023/01/31 00:37:03;;;;;;;31.33;15.83;;;;;;;1.38;93.65;94060.22;5052599;28;20220;-53
2023/01/31 00:39:28;;;;;;;32.37;16.37;;;;;;;1.32;94.71;94045.56;5052248;28;20205;-55
2023/01/31 00:41:53;;;;;;;30.90;15.03;;;;;;;1.44;93.47;94079.88;5051946;28;20268;-56
2023/01/31 00:44:19;;;;;;;34.03;17.23;;;;;;;1.53;91.34;94122.75;5053786;28;20591;-54
2023/01/31 00:46:44;;;;;;;27.97;14.47;;;;;;;1.31;91.43;94087.34;5053923;28;20192;-52
2023/01/31 00:49:11;;;;;;;34.77;15.40;;;;;;;1.41;92.05;94093.41;5053314;28;20296;-52
2023/01/31 00:51:36;;;;;;;32.67;16.83;;;;;;;1.31;93.19;94077.31;5053754;28;20284;-56
2023/01/31 00:54:02;;;;;;;28.00;14.63;;;;;;;1.33;92.40;94095.56;5053847;28;20770;-56
2023/01/31 00:56:28;;;;;;;31.03;16.00;;;;;;;1.40;91.06;94109.31;5053950;28;20206;-56
2023/01/31 00:59:00;;;;;;;30.30;15.17;;;;;;;1.39;92.03;94085.19;5036723;28;20244;-55
2023/01/31 01:01:27;;;;;;;26.33;15.20;;;;;;;1.37;93.06;94063.63;5053813;28;20246;-53
2023/01/31 01:03:55;;;;;;;31.03;15.27;;;;;;;1.43;92.63;94070.78;5054050;28;20214;-54
2023/01/31 01:06:28;;;;;;;31.07;15.10;;;;;;;1.55;91.86;94080.06;5053335;28;20220;-56
2023/01/31 01:08:55;;;;;;;28.50;14.77;;;;;;;1.52;91.50;94098.59;5053356;28;20586;-52
2023/01/31 01:11:23;;;;;;;28.53;14.57;;;;;;;1.38;94.65;94038.50;5051838;28;20188;-55
2023/01/31 01:13:49;;;;;;;28.67;14.50;;;;;;;1.12;94.18;94048.44;5051940;28;20220;-54
2023/01/31 01:16:21;;;;;;;29.70;14.00;;;;;;;0.73;94.63;94029.81;5053575;28;20213;-52
2023/01/31 01:18:48;;;;;;;27.33;13.77;;;;;;;0.78;95.44;94022.88;5053356;28;20698;-55
2023/01/31 01:21:19;;;;;;;24.47;12.17;;;;;;;0.64;96.33;94014.53;5053544;28;20196;-53
2023/01/31 01:23:46;;;;;;;23.27;10.67;;;;;;;0.63;95.58;94028.72;5053709;28;20213;-57
2023/01/31 01:26:17;;;;;;;22.03;11.27;;;;;;;0.62;97.92;93966.31;5053325;28;20193;-55
2023/01/31 01:28:42;;;;;;;19.10;10.10;;;;;;;0.75;96.04;94003.03;5051792;28;20213;-52
2023/01/31 01:31:10;;;;;;;20.47;9.83;;;;;;;0.79;92.52;94066.97;5053197;28;20190;-53
2023/01/31 01:33:36;;;;;;;20.93;9.67;;;;;;;0.79;91.81;94088.69;5068058;28;20773;-53
2023/01/31 01:36:04;;;;;;;19.53;9.30;;;;;;;0.78;91.73;94074.59;5052263;28;20209;-55
2023/01/31 01:38:32;;;;;;;15.50;7.50;;;;;;;0.64;86.88;94172.06;5052992;28;20255;-56
2023/01/31 01:40:57;;;;;;;18.70;7.77;;;;;;;0.89;91.74;94057.25;5053116;28;20201;-53
2023/01/31 01:43:55;;;;;;;12.67;6.77;;;;;;;0.93;85.04;94211.28;5051972;28;20687;-56
2023/01/31 01:46:42;;;;;;;11.73;6.80;;;;;;;0.90;82.44;94259.00;5053080;28;20677;-54
2023/01/31 01:49:35;;;;;;;12.23;5.80;;;;;;;0.98;80.74;94286.91;5053344;28;20206;-54
2023/01/31 01:52:05;;;;;;;10.77;5.67;;;;;;;0.87;79.49;94310.91;5051008;28;20233;-54
2023/01/31 01:55:10;;;;;;;12.10;5.73;;;;;;;1.12;77.52;94352.03;5053044;28;20713;-57
2023/01/31 01:57:40;;;;;;;8.73;4.60;;;;;;;1.18;74.08;94426.78;5066501;28;20225;-57
2023/01/31 02:00:12;;;;;;;8.20;4.27;;;;;;;1.20;74.77;94377.47;5052645;28;20220;-57
2023/01/31 02:02:38;;;;;;;10.90;4.50;;;;;;;1.25;73.38;94402.25;5052772;28;20214;-53
2023/01/31 02:05:05;;;;;;;9.23;4.40;;;;;;;1.28;73.01;94409.59;5052827;28;20331;-57
2023/01/31 02:07:30;;;;;;;6.83;4.10;;;;;;;1.26;73.58;94372.13;5052349;28;20205;-53
2023/01/31 02:10:05;;;;;;;8.43;4.23;;;;;;;1.32;72.76;94386.81;5052575;28;20192;-54
2023/01/31 02:12:32;;;;;;;11.87;4.73;;;;;;;1.25;72.71;94380.50;5052720;28;20670;-54
2023/01/31 02:14:58;;;;;;;9.47;4.23;;;;;;;1.34;72.09;94407.56;5052575;28;20186;-56
2023/01/31 02:17:25;;;;;;;9.53;4.23;;;;;;;1.21;72.11;94376.56;5052227;28;20687;-57
2023/01/31 02:20:00;;;;;;;7.83;4.10;;;;;;;1.27;72.30;94391.25;5052449;28;20532;-55
2023/01/31 02:22:41;;;;;;;5.77;3.67;;;;;;;1.26;72.65;94381.31;5052343;28;20200;-57
2023/01/31 02:25:32;;;;;;;6.10;3.83;;;;;;;1.29;72.08;94389.50;5052270;28;20182;-55
2023/01/31 02:28:28;;;;;;;9.33;3.67;;;;;;;1.20;72.26;94374.97;5052415;28;20694;-52
2023/01/31 02:31:00;;;;;;;7.97;4.30;;;;;;;1.20;72.40;94371.66;5052578;28;20207;-53
2023/01/31 02:33:46;;;;;;;7.30;4.00;;;;;;;0.99;72.37;94331.03;5052487;28;20253;-56
2023/01/31 02:36:34;;;;;;;8.70;4.33;;;;;;;1.12;72.77;94344.53;5052151;28;20222;-57
2023/01/31 02:39:02;;;;;;;6.60;3.50;;;;;;;1.09;72.39;94356.41;5052318;28;20216;-54
2023/01/31 02:41:52;;;;;;;7.17;3.63;;;;;;;1.05;72.18;94365.75;5052014;28;20189;-56
2023/01/31 02:44:59;;;;;;;6.67;4.60;;;;;;;1.01;72.76;94354.28;5052074;28;20241;-56
2023/01/31 02:47:52;;;;;;;4.03;3.30;;;;;;;1.05;72.36;94373.25;5041005;28;20209;-56
2023/01/31 02:50:30;;;;;;;8.60;4.03;;;;;;;1.07;72.15;94373.97;5051722;28;20204;-56
2023/01/31 02:53:08;;;;;;;9.40;4.07;;;;;;;1.00;72.36;94359.38;5049677;28;20215;-54
2023/01/31 02:58:39;;;;;;;5.93;3.80;;;;;;;1.03;73.45;94341.72;5052289;28;20215;-55
2023/01/31 03:01:06;;;;;;;6.80;4.57;;;;;;;1.08;74.13;94345.59;5051754;28;20217;-55
2023/01/31 03:03:34;;;;;;;9.13;3.73;;;;;;;1.02;75.53;94288.34;5051603;28;20236;-55
2023/01/31 03:06:09;;;;;;;9.20;4.87;;;;;;;1.00;75.79;94312.66;5051767;28;20217;-53
2023/01/31 03:08:42;;;;;;;9.60;4.57;;;;;;;0.98;75.52;94326.13;5051748;28;20201;-54
2023/01/31 03:11:08;;;;;;;9.60;4.03;;;;;;;0.99;76.37;94285.22;5051648;28;20305;-54
2023/01/31 03:13:49;;;;;;;7.13;4.27;;;;;;;0.98;76.52;94299.41;5051518;28;20687;-56
2023/01/31 03:19:20;;;;;;;7.10;4.87;;;;;;;0.92;77.86;94281.41;5051987;28;20622;-53
2023/01/31 03:21:57;;;;;;;9.63;5.13;;;;;;;0.93;78.86;94275.53;5051597;28;20280;-54
2023/01/31 03:24:25;;;;;;;12.27;5.50;;;;;;;0.94;79.85;94240.44;5051472;28;20266;-53
2023/01/31 03:26:52;;;;;;;10.83;5.53;;;;;;;0.88;80.51;94225.75;5066811;28;20217;-52
2023/01/31 03:29:18;;;;;;;13.30;4.77;;;;;;;0.79;81.06;94221.25;5047946;28;20205;-53
2023/01/31 03:32:02;;;;;;;9.43;5.33;;;;;;;0.79;81.43;94213.72;5051078;28;20196;-53
2023/01/31 03:34:28;;;;;;;10.53;4.87;;;;;;;0.76;81.92;94188.91;5051183;28;20209;-57
2023/01/31 03:37:09;;;;;;;8.97;5.27;;;;;;;0.78;82.21;94217.94;5051551;28;20238;-53
2023/01/31 03:39:51;;;;;;;7.87;4.67;;;;;;;0.41;83.43;94142.50;5050036;28;20223;-52
2023/01/31 03:42:26;;;;;;;9.77;4.77;;;;;;;0.76;83.90;94188.91;5051213;28;20200;-54
2023/01/31 03:44:55;;;;;;;11.27;5.20;;;;;;;0.62;84.53;94166.34;5050998;28;20655;-53
2023/01/31 03:47:32;;;;;;;11.57;5.70;;;;;;;0.78;84.91;94187.13;5050926;28;20607;-57
2023/01/31 03:50:04;;;;;;;10.27;5.47;;;;;;;0.66;86.08;94173.59;5051099;28;20674;-58
2023/01/31 03:52:42;;;;;;;9.30;5.03;;;;;;;0.67;86.69;94159.38;5051068;28;20232;-53
2023/01/31 03:55:32;;;;;;;12.27;6.10;;;;;;;0.70;88.68;94130.03;5051002;28;20181;-55
2023/01/31 03:58:00;;;;;;;9.23;5.07;;;;;;;0.55;89.88;94090.03;5050274;28;20209;-55
2023/01/31 04:00:26;;;;;;;10.03;5.37;;;;;;;0.51;91.18;94076.09;5066288;28;20315;-57
2023/01/31 04:03:01;;;;;;;9.23;5.27;;;;;;;0.53;91.86;94091.81;5050717;28;20209;-55
2023/01/31 04:05:31;;;;;;;11.33;5.90;;;;;;;0.48;93.27;94058.78;5050752;28;20177;-52
2023/01/31 04:07:57;;;;;;;12.77;6.60;;;;;;;0.57;93.25;94064.06;5048429;28;20248;-52
2023/01/31 04:10:25;;;;;;;10.30;6.17;;;;;;;0.55;93.81;94070.84;5048470;28;20318;-54
2023/01/31 04:12:50;;;;;;;10.37;5.50;;;;;;;0.20;94.60;94006.22;5049863;28;20686;-53
2023/01/31 04:15:16;;;;;;;14.43;6.37;;;;;;;0.49;94.96;94062.88;5049504;28;20201;-56
2023/01/31 04:17:42;;;;;;;11.43;6.43;;;;;;;0.56;95.91;94059.97;5050628;28;20673;-53
2023/01/31 04:20:08;;;;;;;12.60;6.27;;;;;;;0.55;96.34;94050.03;5050681;28;20251;-54
2023/01/31 04:22:34;;;;;;;11.40;6.30;;;;;;;0.46;97.61;94033.06;5050496;28;20228;-56
2023/01/31 04:25:00;;;;;;;10.70;6.13;;;;;;;0.42;97.90;94034.94;5050659;28;20192;-55
2023/01/31 04:27:25;;;;;;;12.47;6.57;;;;;;;0.39;99.18;94020.09;5050701;28;20189;-54
2023/01/31 04:29:50;;;;;;;15.77;6.70;;;;;;;0.41;99.22;94017.50;5050593;28;20578;-54
2023/01/31 04:32:16;;;;;;;12.83;7.07;;;;;;;0.37;100.00;94016.09;5050400;28;20186;-56
2023/01/31 04:34:41;;;;;;;13.00;7.03;;;;;;;0.37;100.00;94018.59;5050715;28;20663;-52
2023/01/31 04:37:07;;;;;;;12.63;6.40;;;;;;;0.26;100.00;94005.91;5050447;28;20693;-52
2023/01/31 04:39:32;;;;;;;13.77;7.33;;;;;;;0.25;100.00;94011.75;5050315;28;20240;-53
2023/01/31 04:41:57;;;;;;;11.70;6.33;;;;;;;0.34;100.00;94024.56;5050448;28;20202;-52
2023/01/31 04:44:23;;;;;;;12.27;6.10;;;;;;;0.33;100.00;94030.44;5050210;28;20223;-55
2023/01/31 04:46:48;;;;;;;12.97;6.97;;;;;;;0.28;100.00;94019.09;5050448;28;20268;-52
2023/01/31 04:49:14;;;;;;;17.13;7.50;;;;;;;0.19;100.00;94027.91;5049076;28;20217;-55
2023/01/31 04:51:40;;;;;;;15.20;6.60;;;;;;;0.18;100.00;94043.81;5050249;28;20193;-53
2023/01/31 04:54:05;;;;;;;13.87;7.17;;;;;;;0.12;100.00;94018.34;5050405;28;20329;-52
2023/01/31 04:56:31;;;;;;;11.57;6.17;;;;;;;0.14;100.00;94036.56;5050147;28;20214;-51
2023/01/31 04:58:57;;;;;;;17.40;7.87;;;;;;;0.15;100.00;94046.44;5049958;28;20228;-53
2023/01/31 05:01:23;;;;;;;12.57;7.37;;;;;;;0.18;100.00;94050.47;5050121;28;20568;-56
2023/01/31 05:03:49;;;;;;;18.73;8.37;;;;;;;0.26;100.00;94073.34;5050028;28;20213;-54
2023/01/31 05:06:15;;;;;;;21.10;9.20;;;;;;;3.45;100.00;94099.78;5049265;28;20246;-54
2023/01/31 05:08:41;;;;;;;17.57;8.83;;;;;;;5.32;100.00;94079.75;5049534;28;20694;-59
2023/01/31 05:11:06;;;;;;;14.33;7.20;;;;;;;4.63;100.00;94375.09;5053799;28;20581;-58
2023/01/31 05:13:36;;;;;;;13.87;7.20;;;;;;;2.15;100.00;94294.44;5053923;28;20267;-55
2023/01/31 05:16:10;;;;;;;11.10;6.40;;;;;;;1.29;100.00;94204.25;5053335;28;20240;-56
2023/01/31 05:18:37;;;;;;;10.63;6.17;;;;;;;0.96;100.00;94162.78;5052106;28;20703;-56
2023/01/31 05:21:04;;;;;;;12.40;6.30;;;;;;;0.77;100.00;94160.50;5053406;28;20273;-53
2023/01/31 05:23:30;;;;;;;11.87;6.40;;;;;;;0.74;100.00;94158.16;5053256;28;20227;-55
2023/01/31 05:25:55;;;;;;;13.13;7.00;;;;;;;0.57;100.00;94165.78;5053419;28;20189;-56
2023/01/31 05:28:21;;;;;;;12.33;6.40;;;;;;;0.48;100.00;94156.28;5053089;28;20209;-54
2023/01/31 05:30:47;;;;;;;11.80;6.40;;;;;;;0.52;100.00;94156.03;5053083;28;20651;-56
2023/01/31 05:33:13;;;;;;;12.63;6.30;;;;;;;0.53;100.00;94167.63;5053317;28;20275;-53
2023/01/31 05:35:40;;;;;;;9.70;5.47;;;;;;;0.46;100.00;94150.56;5053131;28;20189;-55
2023/01/31 05:38:06;;;;;;;12.53;7.03;;;;;;;0.56;100.00;94157.50;5053394;28;20296;-56
2023/01/31 05:40:31;;;;;;;11.03;5.57;;;;;;;0.44;100.00;94168.16;5053028;28;20272;-52
2023/01/31 05:43:01;;;;;;;13.23;6.77;;;;;;;0.55;100.00;94173.34;5051799;28;20686;-52
2023/01/31 05:45:27;;;;;;;11.90;5.90;;;;;;;0.56;100.00;94162.50;5053204;28;20594;-58
2023/01/31 05:47:53;;;;;;;11.27;6.37;;;;;;;0.55;100.00;94152.56;5052719;28;20258;-55
2023/01/31 05:50:20;;;;;;;9.50;5.67;;;;;;;0.71;100.00;94195.84;5068367;28;20224;-56
2023/01/31 05:52:53;;;;;;;13.13;5.87;;;;;;;0.76;100.00;94193.91;5053056;28;20213;-59
2023/01/31 05:55:19;;;;;;;9.67;6.10;;;;;;;0.79;100.00;94193.72;5052803;28;20186;-55
2023/01/31 05:57:45;;;;;;;8.80;5.87;;;;;;;0.73;100.00;94209.06;5052828;28;20751;-58
2023/01/31 06:00:13;;;;;;;13.60;6.83;;;;;;;0.66;100.00;94202.78;5052856;28;20189;-57
2023/01/31 06:02:39;;;;;;;12.07;6.50;;;;;;;0.70;100.00;94206.75;5052683;28;20221;-54
2023/01/31 06:05:05;;;;;;;8.90;5.33;;;;;;;0.69;100.00;94193.44;5052710;28;20221;-55
2023/01/31 06:07:31;;;;;;;11.80;6.03;;;;;;;0.62;100.00;94191.34;5052500;28;20307;-52
2023/01/31 06:09:56;;;;;;;9.50;6.30;;;;;;;0.64;100.00;94185.38;5052529;28;20182;-54
2023/01/31 06:12:22;;;;;;;21.33;9.93;;;;;;;4.26;100.00;94111.78;5052308;28;20189;-55
2023/01/31 06:14:48;;;;;;;20.27;7.70;;;;;;;4.00;100.00;94110.25;5052540;28;20200;-51
2023/01/31 06:17:13;;;;;;;14.30;6.27;;;;;;;2.26;100.00;94313.88;5052130;28;20295;-55
2023/01/31 06:19:39;;;;;;;12.23;6.40;;;;;;;1.57;100.00;94279.44;5052387;28;20663;-59
2023/01/31 06:22:05;;;;;;;12.77;7.17;;;;;;;1.21;100.00;94245.63;5051957;28;20251;-55
2023/01/31 06:24:30;;;;;;;10.07;5.87;;;;;;;1.02;100.00;94225.81;5052585;28;20217;-54
2023/01/31 06:26:56;;;;;;;10.00;5.97;;;;;;;0.92;100.00;94218.88;5052585;28;20185;-53
2023/01/31 06:29:21;;;;;;;8.50;5.67;;;;;;;0.92;100.00;94227.19;5052464;28;20206;-55
2023/01/31 06:31:47;;;;;;;13.83;6.83;;;;;;;0.87;100.00;94206.63;5052019;28;20606;-56
2023/01/31 06:34:12;;;;;;;11.33;6.63;;;;;;;0.91;100.00;94219.78;5049932;28;20244;-55
2023/01/31 06:36:38;;;;;;;12.87;6.73;;;;;;;0.53;100.00;94161.81;5065781;28;20226;-55
2023/01/31 06:39:04;;;;;;;11.40;5.97;;;;;;;0.89;100.00;94217.34;5051098;28;20768;-57
2023/01/31 06:41:29;;;;;;;11.43;5.80;;;;;;;0.84;100.00;94209.31;5052216;28;20277;-57
2023/01/31 06:43:55;;;;;;;11.73;6.37;;;;;;;0.80;100.00;94201.16;5051838;28;20758;-55
2023/01/31 06:46:21;;;;;;;14.63;6.90;;;;;;;0.91;100.00;94212.28;5052299;28;20192;-56
2023/01/31 06:48:49;;;;;;;11.77;6.63;;;;;;;0.93;100.00;94228.00;5052067;28;20564;-53
2023/01/31 06:51:15;;;;;;;11.77;6.53;;;;;;;0.91;100.00;94222.28;5051926;28;20189;-53
2023/01/31 06:53:41;;;;;;;8.97;5.60;;;;;;;1.01;100.00;94230.91;5052065;28;20293;-56
2023/01/31 06:56:07;;;;;;;11.90;6.93;;;;;;;0.91;100.00;94248.09;5051876;28;20698;-55
2023/01/31 06:58:33;;;;;;;12.87;6.63;;;;;;;1.01;100.00;94259.22;5051875;28;20220;-56
2023/01/31 07:01:10;;;;;;;14.80;6.93;;;;;;;0.96;100.00;94217.81;5051930;28;20264;-55
2023/01/31 07:03:37;;;;;;;11.90;7.07;;;;;;;0.98;100.00;94239.38;5051890;28;20223;-53
2023/01/31 07:06:03;;;;;;;14.13;6.53;;;;;;;0.97;100.00;94230.25;5051758;28;20182;-54
2023/01/31 07:08:29;;;;;;;11.73;6.73;;;;;;;1.04;100.00;94233.22;5051887;28;20269;-53
2023/01/31 07:10:55;;;;;;;10.30;6.50;;;;;;;1.08;100.00;94269.69;5051540;28;20196;-59
2023/01/31 07:13:21;;;;;;;11.13;6.43;;;;;;;1.08;100.00;94259.69;5051563;28;20201;-57
2023/01/31 07:15:46;;;;;;;15.67;8.13;;;;;;;1.04;100.00;94240.72;5051448;28;20659;-55
2023/01/31 07:18:12;;;;;;;11.70;6.77;;;;;;;1.03;100.00;94246.63;5051421;28;20288;-57
2023/01/31 07:20:41;;;;;;;13.53;6.43;;;;;;;1.05;100.00;94245.63;5066950;28;20689;-52
2023/01/31 07:23:07;;;;;;;11.93;6.07;;;;;;;1.14;100.00;94284.38;5049492;28;20201;-53
2023/01/31 07:25:34;;;;;;;9.67;5.70;;;;;;;1.12;100.00;94278.66;5049329;28;20193;-55
2023/01/31 07:28:00;;;;;;;10.73;6.50;;;;;;;1.14;100.00;94270.19;5051583;28;20706;-56
2023/01/31 07:30:26;;;;;;;10.73;6.00;;;;;;;1.12;100.00;94251.94;5051377;28;20213;-57
2023/01/31 07:32:51;;;;;;;13.73;6.73;;;;;;;1.17;100.00;94246.69;5050274;28;20210;-56
2023/01/31 07:35:18;;;;;;;14.37;6.07;;;;;;;1.19;100.00;94255.69;5051274;28;20185;-54
2023/01/31 07:37:44;;;;;;;11.67;7.20;;;;;;;1.25;100.00;94275.38;5051412;28;20217;-55
2023/01/31 07:40:12;;;;;;;13.90;6.73;;;;;;;1.15;100.00;94240.97;5051181;28;20193;-52
2023/01/31 07:42:38;;;;;;;11.00;6.43;;;;;;;1.15;100.00;94236.75;5050906;28;20201;-53
2023/01/31 07:45:04;;;;;;;15.30;7.37;;;;;;;1.10;100.00;94228.69;5051469;28;20201;-53
2023/01/31 07:47:30;;;;;;;10.60;6.27;;;;;;;1.18;100.00;94236.59;5050868;28;20209;-53
2023/01/31 07:49:55;;;;;;;11.57;6.23;;;;;;;1.14;100.00;94230.13;5051180;28;20681;-54
2023/01/31 07:52:21;;;;;;;14.13;7.13;;;;;;;1.14;100.00;94237.63;5050965;28;20299;-58
2023/01/31 07:54:47;;;;;;;11.43;6.60;;;;;;;1.16;100.00;94223.34;5050917;28;20227;-57
2023/01/31 07:57:12;;;;;;;10.07;5.93;;;;;;;1.16;100.00;94217.53;5049987;28;20626;-56
2023/01/31 07:59:37;;;;;;;12.60;6.37;;;;;;;1.21;100.00;94226.38;5049845;28;20660;-57
2023/01/31 08:04:47;;;;;;;13.53;6.63;;;;;;;1.16;100.00;94207.53;5051264;28;20200;-52
2023/01/31 08:07:13;;;;;;;13.50;6.00;;;;;;;1.24;100.00;94221.22;5050708;28;20181;-57
2023/01/31 08:09:38;;;;;;;12.33;6.53;;;;;;;1.19;100.00;94184.84;5050837;28;20201;-54
2023/01/31 08:12:05;;;;;;;13.50;7.30;;;;;;;1.24;100.00;94202.88;5050955;28;20182;-54
2023/01/31 08:14:31;;;;;;;11.87;5.83;;;;;;;1.29;100.00;94204.25;5050832;28;20217;-55
2023/01/31 08:16:57;;;;;;;11.13;6.00;;;;;;;1.29;100.00;94200.94;5050705;28;20639;-54
2023/01/31 08:19:22;;;;;;;10.67;5.60;;;;;;;1.16;100.00;94178.31;5051013;28;20305;-52
2023/01/31 08:21:48;;;;;;;11.90;6.47;;;;;;;1.21;100.00;94183.84;5050567;28;20185;-54
2023/01/31 08:24:13;;;;;;;12.03;6.43;;;;;;;1.19;100.00;94190.63;5048521;28;20768;-54
2023/01/31 08:26:41;;;;;;;10.53;5.87;;;;;;;1.27;100.00;94198.50;5048961;28;20839;-54
2023/01/31 08:29:07;;;;;;;13.83;7.17;;;;;;;1.42;100.00;94200.16;5050360;28;20323;-55
2023/01/31 08:31:32;;;;;;;14.47;6.23;;;;;;;1.53;100.00;94212.09;5050489;28;20350;-54
2023/01/31 08:33:58;;;;;;;12.57;6.93;;;;;;;1.59;100.00;94214.22;5050809;28;20297;-54
2023/01/31 08:36:28;;;;;;;10.10;6.30;;;;;;;1.43;100.00;94224.31;5050213;28;20247;-54
2023/01/31 08:38:54;;;;;;;10.13;5.97;;;;;;;1.63;100.00;94239.03;5050647;28;20209;-58
2023/01/31 08:41:21;;;;;;;9.80;5.80;;;;;;;1.65;100.00;94253.97;5050367;28;20225;-55
2023/01/31 08:43:47;;;;;;;10.40;6.37;;;;;;;1.59;100.00;94240.09;5051520;28;20217;-57
2023/01/31 08:46:13;;;;;;;11.17;5.67;;;;;;;1.80;100.00;94252.28;5053970;28;20197;-54
2023/01/31 08:48:40;;;;;;;9.60;5.23;;;;;;;1.70;100.00;94264.50;5053828;28;20228;-54
2023/01/31 08:51:08;;;;;;;10.33;5.10;;;;;;;1.74;100.00;94265.94;5053794;28;20186;-53
2023/01/31 08:53:35;;;;;;;10.60;5.70;;;;;;;1.72;100.00;94266.94;5053424;28;20205;-52
2023/01/31 08:56:04;;;;;;;9.80;6.13;;;;;;;1.73;100.00;94254.31;5051374;28;20292;-53
2023/01/31 08:58:34;;;;;;;9.47;5.00;;;;;;;1.85;100.00;94268.66;5052933;28;20715;-53
2023/01/31 09:01:01;;;;;;;8.70;5.03;;;;;;;1.80;100.00;94258.06;5053623;28;20193;-53
2023/01/31 09:03:27;;;;;;;10.70;5.37;;;;;;;1.85;100.00;94272.84;5053698;28;20217;-55
2023/01/31 09:05:53;;;;;;;8.17;4.80;;;;;;;2.28;100.00;94327.16;5053505;28;20185;-54
2023/01/31 09:08:18;;;;;;;10.03;6.23;;;;;;;2.61;100.00;94360.28;5053543;28;20220;-54
2023/01/31 09:10:50;;;;;;;9.63;4.47;;;;;;;2.77;100.00;94381.06;5053522;28;20582;-56
2023/01/31 09:13:15;;;;;;;7.43;5.00;;;;;;;2.76;100.00;94381.97;5053352;28;20220;-57
2023/01/31 09:15:41;;;;;;;7.60;4.63;;;;;;;2.88;100.00;94398.00;5053435;28;20193;-54
2023/01/31 09:18:06;;;;;;;6.97;4.43;;;;;;;2.74;100.00;94403.84;5053377;28;20299;-51
2023/01/31 09:20:31;;;;;;;7.93;4.77;;;;;;;2.47;100.00;94377.84;5053375;28;20590;-54
2023/01/31 09:22:57;;;;;;;8.70;5.03;;;;;;;2.32;100.00;94326.06;5052949;28;20319;-52
2023/01/31 09:25:22;;;;;;;8.23;4.73;;;;;;;2.87;100.00;94379.63;5051644;28;20189;-54
2023/01/31 09:27:51;;;;;;;8.37;4.43;;;;;;;2.95;100.00;94421.84;5050743;28;20213;-58
2023/01/31 09:30:17;;;;;;;9.10;4.07;;;;;;;2.65;100.00;94386.00;5053073;28;20193;-54
2023/01/31 09:32:43;;;;;;;7.13;4.43;;;;;;;2.59;100.00;94363.78;5053122;28;20575;-52
2023/01/31 09:35:08;;;;;;;5.00;3.50;;;;;;;2.71;100.00;94350.53;5053300;28;20177;-56
2023/01/31 09:37:34;;;;;;;4.90;4.03;;;;;;;3.05;100.00;94386.03;5053187;28;20214;-54
2023/01/31 09:39:59;;;;;;;8.87;4.13;;;;;;;3.12;100.00;94399.84;5053197;28;20179;-52
2023/01/31 09:42:27;;;;;;;8.57;4.97;;;;;;;3.58;100.00;94404.59;5053089;28;20217;-56
2023/01/31 09:45:01;;;;;;;5.77;4.10;;;;;;;3.19;100.00;94418.66;5052939;28;20741;-53
2023/01/31 09:47:30;;;;;;;4.43;3.40;;;;;;;2.99;100.00;94386.41;5052774;28;20194;-52
2023/01/31 09:50:04;;;;;;;6.20;4.07;;;;;;;2.83;100.00;94345.56;5052783;28;20670;-53
2023/01/31 09:52:31;;;;;;;5.87;3.57;;;;;;;2.84;100.00;94354.72;5052717;28;20224;-55
2023/01/31 09:54:58;;;;;;;6.53;3.87;;;;;;;2.83;100.00;94353.09;5050711;28;20189;-53
2023/01/31 09:57:26;;;;;;;8.17;3.97;;;;;;;2.84;100.00;94338.84;5052374;28;20224;-56
2023/01/31 10:00:13;;;;;;;5.90;3.40;;;;;;;3.11;100.00;94348.00;5049956;28;20808;-55
2023/01/31 10:02:38;;;;;;;10.00;4.37;;;;;;;3.55;100.00;94374.63;5050742;28;20227;-54
2023/01/31 10:05:11;;;;;;;7.33;4.20;;;;;;;4.09;100.00;94436.53;5052642;28;20294;-54
2023/01/31 10:08:05;;;;;;;8.97;3.57;;;;;;;4.46;100.00;94497.91;5052772;28;20217;-53
2023/01/31 10:10:44;;;;;;;7.47;3.77;;;;;;;4.00;100.00;94453.00;5048685;28;20196;-55
2023/01/31 10:13:16;;;;;;;5.43;3.40;;;;;;;3.61;100.00;94409.44;5052567;28;20304;-56
2023/01/31 10:16:04;;;;;;;3.93;2.90;;;;;;;3.45;100.00;94393.69;5052404;28;20346;-56
2023/01/31 10:18:36;;;;;;;7.73;3.30;;;;;;;3.30;100.00;94366.09;5033035;28;20225;-53
2023/01/31 10:21:19;;;;;;;5.07;3.70;;;;;;;3.49;100.00;94357.44;5052379;28;20332;-56
2023/01/31 10:23:49;;;;;;;4.73;3.20;;;;;;;3.30;100.00;94367.78;5052764;28;20252;-54
2023/01/31 10:26:21;;;;;;;6.97;3.70;;;;;;;3.66;100.00;94360.50;5052346;28;20182;-54
2023/01/31 10:29:05;;;;;;;6.17;2.83;;;;;;;3.44;100.00;94352.69;5051910;28;20500;-55
2023/01/31 10:31:44;;;;;;;4.53;2.67;;;;;;;3.14;100.00;94362.09;5050318;28;20188;-53
2023/01/31 10:34:29;;;;;;;4.70;3.10;;;;;;;3.08;100.00;94334.84;5048730;28;20285;-56
2023/01/31 10:36:59;;;;;;;4.73;3.47;;;;;;;3.16;100.00;94315.91;5050292;28;20209;-54
2023/01/31 10:39:47;;;;;;;6.50;3.60;;;;;;;3.45;100.00;94373.59;5052109;28;20215;-56
2023/01/31 10:42:33;;;;;;;3.73;2.63;;;;;;;3.58;100.00;94381.97;5051844;28;20186;-53
2023/01/31 10:45:07;;;;;;;5.93;3.17;;;;;;;3.72;100.00;94422.94;5052202;28;20189;-56
2023/01/31 10:47:33;;;;;;;3.97;2.73;;;;;;;3.34;100.00;94405.19;5051931;28;20557;-55
2023/01/31 10:50:00;;;;;;;6.40;3.10;;;;;;;3.03;100.00;94347.69;5052049;28;20235;-54
2023/01/31 10:52:43;;;;;;;5.73;2.90;;;;;;;3.06;100.00;94332.44;5051890;28;20189;-55
2023/01/31 10:55:46;;;;;;;3.90;2.70;;;;;;;3.12;100.00;94366.41;5052231;28;20208;-55
2023/01/31 10:58:21;;;;;;;5.07;3.20;;;;;;;3.01;100.00;94313.53;5052247;28;20213;-56
2023/01/31 11:00:48;;;;;;;4.97;3.10;;;;;;;2.88;100.00;94327.72;5051915;28;20185;-53
2023/01/31 11:03:15;;;;;;;3.20;2.63;;;;;;;2.93;100.00;94286.38;5051961;28;20262;-55
2023/01/31 11:05:49;;;;;;;4.20;3.10;;;;;;;2.71;100.00;94270.22;5051682;28;20280;-57
2023/01/31 11:08:48;;;;;;;3.00;2.63;;;;;;;2.58;100.00;94257.63;5050191;28;20588;-54
2023/01/31 11:11:17;;;;;;;4.33;3.70;;;;;;;2.62;100.00;94253.22;5051893;28;20613;-59
2023/01/31 11:14:04;;;;;;;4.77;2.87;;;;;;;2.47;100.00;94228.16;5049773;28;20267;-56
2023/01/31 11:41:40;;;;;;;4.23;3.00;;;;;;;1.94;100.00;94132.00;5148450;27;20434;-57
2023/01/31 11:44:16;;;;;;;4.87;3.23;;;;;;;2.06;100.00;94123.75;5109991;28;20247;-60
2023/01/31 11:46:49;;;;;;;4.90;3.20;;;;;;;1.75;100.00;94071.38;5105918;28;20171;-61
2023/01/31 11:49:39;;;;;;;5.47;4.13;;;;;;;2.18;100.00;94118.00;5088084;28;20214;-59
2023/01/31 11:52:33;;;;;;;4.27;3.30;;;;;;;2.29;100.00;94111.41;5108053;28;20596;-54
2023/01/31 11:55:04;;;;;;;3.63;3.13;;;;;;;1.97;100.00;94110.06;5108243;28;20192;-55
2023/01/31 11:57:39;;;;;;;6.20;3.03;;;;;;;1.91;100.00;94092.91;5108100;28;20219;-55
2023/01/31 12:00:22;;;;;;;3.40;2.83;;;;;;;1.99;100.00;94099.94;5107897;28;20211;-55
2023/01/31 12:03:04;;;;;;;4.53;3.37;;;;;;;1.88;100.00;94078.03;5108103;28;20218;-58
2023/01/31 12:05:40;;;;;;;6.37;3.43;;;;;;;1.84;100.00;94066.59;5089715;28;20236;-54
2023/01/31 12:08:26;;;;;;;4.93;3.57;;;;;;;1.81;100.00;94066.78;5107722;28;20282;-54
2023/01/31 12:10:52;;;;;;;5.77;3.90;;;;;;;1.89;100.00;94077.16;5106382;28;20289;-62
2023/01/31 12:13:19;;;;;;;4.90;3.53;;;;;;;1.87;100.00;94118.22;5105573;28;20346;-54
2023/01/31 12:15:51;;;;;;;6.37;4.27;;;;;;;1.85;100.00;94102.47;5107952;28;20202;-55
2023/01/31 12:18:31;;;;;;;6.63;4.27;;;;;;;1.94;100.00;94106.94;5108095;28;20263;-57